createdAt,value
2023-02-20T00:00:39.926Z,102231.84
2023-02-20T00:03:07.908Z,102226.09
2023-02-20T00:05:35.367Z,102228.00
2023-02-20T00:08:02.927Z,102235.34
2023-02-20T00:10:30.057Z,102229.06
2023-02-20T00:12:57.360Z,102225.19
2023-02-20T00:15:24.750Z,102231.25
2023-02-20T00:17:53.195Z,102230.97
2023-02-20T00:20:23.014Z,102219.84
2023-02-20T00:22:51.242Z,102226.34
2023-02-20T00:25:20.531Z,102228.00
2023-02-20T00:27:48.557Z,102215.47
2023-02-20T00:30:18.498Z,102227.44
2023-02-20T00:32:47.872Z,102225.00
2023-02-20T00:35:15.574Z,102226.03
2023-02-20T00:37:42.798Z,102216.75
2023-02-20T00:40:12.242Z,102216.16
2023-02-20T00:42:39.840Z,102219.16
2023-02-20T00:45:07.917Z,102213.97
2023-02-20T00:47:35.348Z,102217.22
2023-02-20T00:50:03.385Z,102217.72
2023-02-20T00:52:30.490Z,102210.09
2023-02-20T00:54:57.648Z,102214.69
2023-02-20T00:57:25.143Z,102218.47
2023-02-20T00:59:53.326Z,102224.19
2023-02-20T01:02:20.777Z,102220.38
2023-02-20T01:04:49.283Z,102220.06
2023-02-20T01:07:16.471Z,102215.97
2023-02-20T01:09:43.920Z,102215.41
2023-02-20T01:12:11.217Z,102215.91
2023-02-20T01:14:38.865Z,102219.69
2023-02-20T01:17:05.975Z,102219.38
2023-02-20T01:19:33.644Z,102221.28
2023-02-20T01:22:00.685Z,102221.78
2023-02-20T01:24:27.820Z,102218.25
2023-02-20T01:26:55.078Z,102221.47
2023-02-20T01:29:22.166Z,102214.66
2023-02-20T01:31:51.102Z,102217.63
2023-02-20T01:34:19.911Z,102215.16
2023-02-20T01:36:51.549Z,102220.28
2023-02-20T01:39:25.091Z,102223.47
2023-02-20T01:41:57.953Z,102219.09
2023-02-20T01:44:27.776Z,102219.25
2023-02-20T01:46:57.014Z,102214.59
2023-02-20T01:49:39.854Z,102217.00
2023-02-20T01:52:18.630Z,102218.06
2023-02-20T01:54:53.039Z,102218.06
2023-02-20T01:57:23.642Z,102213.69
2023-02-20T01:59:56.252Z,102207.72
2023-02-20T02:02:25.851Z,102209.63
2023-02-20T02:04:53.139Z,102202.28
2023-02-20T02:07:24.076Z,102206.91
2023-02-20T02:09:59.326Z,102193.56
2023-02-20T02:12:29.955Z,102194.66
2023-02-20T02:14:57.206Z,102195.19
2023-02-20T02:17:57.946Z,102195.19
2023-02-20T02:20:58.936Z,102211.25
2023-02-20T02:23:55.756Z,102208.75
2023-02-20T02:27:00.121Z,102206.31
2023-02-20T02:29:45.639Z,102205.22
2023-02-20T02:32:50.290Z,102204.69
2023-02-20T02:36:01.844Z,102203.28
2023-02-20T02:39:02.823Z,102202.72
2023-02-20T02:41:45.883Z,102205.41
2023-02-20T02:44:36.293Z,102200.00
2023-02-20T02:47:07.906Z,102206.50
2023-02-20T02:49:48.950Z,102197.78
2023-02-20T02:52:36.657Z,102206.72
2023-02-20T02:55:05.147Z,102204.28
2023-02-20T02:57:32.541Z,102205.69
2023-02-20T03:00:14.807Z,102213.00
2023-02-20T03:02:58.895Z,102209.72
2023-02-20T03:05:40.539Z,102218.94
2023-02-20T03:08:34.730Z,102220.56
2023-02-20T03:11:07.866Z,102218.34
2023-02-20T03:13:59.686Z,102214.50
2023-02-20T03:16:35.652Z,102218.28
2023-02-20T03:19:09.892Z,102215.81
2023-02-20T03:21:38.595Z,102208.44
2023-02-20T03:24:06.526Z,102211.66
2023-02-20T03:26:37.744Z,102204.56
2023-02-20T03:29:14.603Z,102207.44
2023-02-20T03:32:13.882Z,102216.16
2023-02-20T03:35:02.025Z,102212.31
2023-02-20T03:37:53.470Z,102221.50
2023-02-20T03:40:41.605Z,102217.25
2023-02-20T03:43:28.432Z,102209.94
2023-02-20T03:46:12.102Z,102213.22
2023-02-20T03:48:58.879Z,102214.84
2023-02-20T03:51:45.670Z,102224.06
2023-02-20T03:54:23.260Z,102221.00
2023-02-20T03:56:55.961Z,102221.28
2023-02-20T03:59:31.285Z,102226.69
2023-02-20T04:02:02.602Z,102222.34
2023-02-20T04:04:42.315Z,102225.63
2023-02-20T04:07:15.743Z,102226.69
2023-02-20T04:09:46.083Z,102224.81
2023-02-20T04:12:23.602Z,102236.72
2023-02-20T04:14:53.944Z,102241.88
2023-02-20T04:17:30.629Z,102247.56
2023-02-20T04:19:59.234Z,102243.47
2023-02-20T04:22:30.404Z,102242.06
2023-02-20T04:25:22.627Z,102249.63
2023-02-20T04:27:50.212Z,102247.97
2023-02-20T04:30:17.423Z,102252.03
2023-02-20T04:32:45.224Z,102253.34
2023-02-20T04:35:18.486Z,102262.28
2023-02-20T04:37:47.763Z,102266.91
2023-02-20T04:40:18.096Z,102265.50
2023-02-20T04:42:45.549Z,102260.06
2023-02-20T04:45:12.894Z,102265.50
2023-02-20T04:47:40.070Z,102264.91
2023-02-20T04:50:07.477Z,102269.50
2023-02-20T04:52:34.749Z,102270.31
2023-02-20T04:55:01.777Z,102263.84
2023-02-20T04:57:29.558Z,102263.03
2023-02-20T04:59:56.662Z,102266.31
2023-02-20T05:02:23.930Z,102258.75
2023-02-20T05:04:50.980Z,102256.28
2023-02-20T05:07:18.385Z,102252.53
2023-02-20T05:09:45.709Z,102261.78
2023-02-20T05:12:12.802Z,102268.28
2023-02-20T05:14:39.803Z,102268.28
2023-02-20T05:17:06.930Z,102274.53
2023-02-20T05:19:34.039Z,102280.78
2023-02-20T05:22:19.393Z,102271.25
2023-02-20T05:24:48.331Z,102275.53
2023-02-20T05:27:17.704Z,102281.28
2023-02-20T05:29:46.617Z,102280.78
2023-02-20T05:32:14.478Z,102278.13
2023-02-20T05:34:41.647Z,102288.50
2023-02-20T05:37:09.072Z,102299.34
2023-02-20T05:39:36.286Z,102293.34
2023-02-20T05:42:03.489Z,102299.81
2023-02-20T05:44:30.671Z,102309.63
2023-02-20T05:46:57.869Z,102298.78
2023-02-20T05:49:25.555Z,102309.19
2023-02-20T05:51:53.142Z,102306.00
2023-02-20T05:54:20.912Z,102303.97
2023-02-20T05:56:48.747Z,102302.56
2023-02-20T05:59:18.937Z,102311.56
2023-02-20T06:01:46.392Z,102318.34
2023-02-20T06:04:14.122Z,102319.91
2023-02-20T06:06:42.663Z,102317.53
2023-02-20T06:09:11.958Z,102320.56
2023-02-20T06:11:40.074Z,102315.72
2023-02-20T06:14:07.858Z,102318.97
2023-02-20T06:16:35.923Z,102324.22
2023-02-20T06:19:03.612Z,102329.44
2023-02-20T06:21:30.781Z,102335.94
2023-02-20T06:23:57.842Z,102344.25
2023-02-20T06:26:25.095Z,102330.72
2023-02-20T06:28:54.456Z,102333.94
2023-02-20T06:31:53.879Z,102338.84
2023-02-20T06:34:21.496Z,102344.19
2023-02-20T06:36:48.627Z,102350.41
2023-02-20T06:39:16.199Z,102342.91
2023-02-20T06:41:44.074Z,102347.75
2023-02-20T06:44:11.215Z,102352.13
2023-02-20T06:46:38.453Z,102352.78
2023-02-20T06:49:05.697Z,102363.22
2023-02-20T06:51:34.630Z,102367.78
2023-02-20T06:54:02.828Z,102367.19
2023-02-20T06:56:32.597Z,102371.38
2023-02-20T06:59:00.555Z,102380.63
2023-02-20T07:01:31.154Z,102380.50
2023-02-20T07:04:00.812Z,102376.44
2023-02-20T07:06:28.799Z,102380.50
2023-02-20T07:08:55.908Z,102382.41
2023-02-20T07:11:24.446Z,102386.13
2023-02-20T07:13:52.107Z,102378.06
2023-02-20T07:16:19.305Z,102380.50
2023-02-20T07:18:46.502Z,102389.31
2023-02-20T07:21:13.658Z,102380.38
2023-02-20T07:23:40.672Z,102392.09
2023-02-20T07:26:08.035Z,102388.81
2023-02-20T07:28:38.225Z,102380.50
2023-02-20T07:31:05.518Z,102381.34
2023-02-20T07:33:32.577Z,102385.84
2023-02-20T07:36:00.135Z,102386.00
2023-02-20T07:38:27.192Z,102387.75
2023-02-20T07:40:54.549Z,102383.50
2023-02-20T07:43:21.823Z,102371.91
2023-02-20T07:45:51.254Z,102388.69
2023-02-20T07:48:18.318Z,102380.59
2023-02-20T07:50:45.512Z,102376.56
2023-02-20T07:53:17.986Z,102377.47
2023-02-20T07:55:45.140Z,102374.09
2023-02-20T07:58:12.238Z,102379.78
2023-02-20T08:00:39.321Z,102379.31
2023-02-20T08:03:06.610Z,102384.81
2023-02-20T08:05:48.322Z,102375.91
2023-02-20T08:08:16.584Z,102379.03
2023-02-20T08:10:43.808Z,102376.97
2023-02-20T08:13:11.042Z,102371.78
2023-02-20T08:15:38.270Z,102386.53
2023-02-20T08:18:12.579Z,102390.94
2023-02-20T08:20:43.547Z,102394.94
2023-02-20T08:23:18.863Z,102385.97
2023-02-20T08:25:46.525Z,102385.72
2023-02-20T08:28:14.071Z,102389.66
2023-02-20T08:30:41.327Z,102388.03
2023-02-20T08:33:09.584Z,102386.09
2023-02-20T08:35:37.374Z,102390.16
2023-02-20T08:38:06.704Z,102388.84
2023-02-20T08:40:34.300Z,102397.91
2023-02-20T08:43:01.332Z,102391.88
2023-02-20T08:45:28.608Z,102388.84
2023-02-20T08:48:02.332Z,102394.50
2023-02-20T08:50:29.490Z,102402.88
2023-02-20T08:52:56.617Z,102393.00
2023-02-20T08:55:23.791Z,102393.69
2023-02-20T08:57:50.949Z,102392.16
2023-02-20T09:00:19.306Z,102386.94
2023-02-20T09:02:49.265Z,102390.66
2023-02-20T09:05:17.558Z,102383.50
2023-02-20T09:07:45.513Z,102387.81
2023-02-20T09:10:13.052Z,102389.19
2023-02-20T09:12:42.436Z,102386.13
2023-02-20T09:15:10.816Z,102393.59
2023-02-20T09:17:39.004Z,102380.47
2023-02-20T09:20:10.071Z,102392.19
2023-02-20T09:22:37.392Z,102382.88
2023-02-20T09:25:05.609Z,102380.50
2023-02-20T09:27:33.218Z,102381.34
2023-02-20T09:30:00.716Z,102376.97
2023-02-20T09:32:27.953Z,102377.28
2023-02-20T09:34:55.163Z,102378.09
2023-02-20T09:37:22.392Z,102375.50
2023-02-20T09:39:49.440Z,102376.97
2023-02-20T09:42:43.985Z,102378.22
2023-02-20T09:45:25.466Z,102378.53
2023-02-20T09:48:00.122Z,102368.34
2023-02-20T09:50:44.924Z,102367.25
2023-02-20T09:53:32.953Z,102370.59
2023-02-20T09:56:02.042Z,102377.50
2023-02-20T09:58:47.414Z,102368.44
2023-02-20T10:01:20.224Z,102376.66
2023-02-20T10:04:01.169Z,102371.03
2023-02-20T10:06:34.771Z,102369.63
2023-02-20T10:09:04.106Z,102367.25
2023-02-20T10:11:49.815Z,102369.78
2023-02-20T10:15:04.394Z,102369.50
2023-02-20T10:18:08.226Z,102364.00
2023-02-20T10:20:46.733Z,102364.56
2023-02-20T10:23:35.067Z,102365.00
2023-02-20T10:26:07.165Z,102370.31
2023-02-20T10:28:34.742Z,102366.88
2023-02-20T10:31:18.646Z,102364.94
2023-02-20T10:33:59.741Z,102361.66
2023-02-20T10:36:38.790Z,102362.63
2023-02-20T10:39:08.533Z,102357.91
2023-02-20T10:41:54.672Z,102355.50
2023-02-20T10:44:28.643Z,102354.31
2023-02-20T10:47:12.578Z,102353.03
2023-02-20T10:49:55.993Z,102350.06
2023-02-20T10:52:35.948Z,102345.41
2023-02-20T10:55:11.525Z,102345.56
2023-02-20T10:57:48.003Z,102342.28
2023-02-20T11:00:23.599Z,102341.69
2023-02-20T11:02:58.042Z,102336.25
2023-02-20T11:05:29.060Z,102334.38
2023-02-20T11:07:56.196Z,102324.09
2023-02-20T11:10:23.504Z,102330.50
2023-02-20T11:12:52.700Z,102319.09
2023-02-20T11:15:24.523Z,102323.44
2023-02-20T11:17:56.965Z,102326.44
2023-02-20T11:20:33.357Z,102320.84
2023-02-20T11:23:01.736Z,102318.03
2023-02-20T11:25:36.884Z,102321.59
2023-02-20T11:28:23.448Z,102313.97
2023-02-20T11:31:03.749Z,102313.75
2023-02-20T11:33:34.761Z,102304.94
2023-02-20T11:36:20.611Z,102307.47
2023-02-20T11:38:48.473Z,102306.28
2023-02-20T11:41:26.025Z,102299.66
2023-02-20T11:44:14.350Z,102303.41
2023-02-20T11:46:41.542Z,102301.56
2023-02-20T11:49:29.075Z,102292.41
2023-02-20T11:52:18.433Z,102304.00
2023-02-20T11:54:48.784Z,102297.16
2023-02-20T11:57:16.326Z,102293.09
2023-02-20T11:59:48.775Z,102283.34
2023-02-20T12:02:15.878Z,102287.63
2023-02-20T12:05:01.969Z,102287.91
2023-02-20T12:07:35.773Z,102278.09
2023-02-20T12:10:37.130Z,102277.81
2023-02-20T12:13:05.868Z,102269.75
2023-02-20T12:15:32.903Z,102274.38
2023-02-20T12:18:24.796Z,102268.69
2023-02-20T12:21:25.732Z,102279.03
2023-02-20T12:24:28.451Z,102280.34
2023-02-20T12:27:02.306Z,102271.00
2023-02-20T12:29:49.717Z,102270.59
2023-02-20T12:32:46.415Z,102274.16
2023-02-20T12:35:28.550Z,102273.72
2023-02-20T12:38:23.942Z,102270.31
2023-02-20T12:41:19.699Z,102261.38
2023-02-20T12:44:12.786Z,102252.06
2023-02-20T12:46:43.191Z,102253.13
2023-02-20T12:49:18.144Z,102255.34
2023-02-20T12:52:04.579Z,102254.69
2023-02-20T12:55:00.660Z,102250.00
2023-02-20T12:57:36.463Z,102253.41
2023-02-20T13:00:22.813Z,102254.81
2023-02-20T13:02:56.149Z,102259.66
2023-02-20T13:05:27.399Z,102252.72
2023-02-20T13:07:57.314Z,102254.81
2023-02-20T13:10:39.981Z,102256.28
2023-02-20T13:13:11.445Z,102251.25
2023-02-20T13:15:50.744Z,102255.19
2023-02-20T13:18:23.555Z,102255.34
2023-02-20T13:20:55.249Z,102251.34
2023-02-20T13:23:22.314Z,102254.22
2023-02-20T13:25:51.132Z,102238.66
2023-02-20T13:28:20.915Z,102242.75
2023-02-20T13:31:11.795Z,102236.50
2023-02-20T13:33:41.481Z,102242.28
2023-02-20T13:36:39.599Z,102237.78
2023-02-20T13:39:25.472Z,102238.09
2023-02-20T13:41:58.257Z,102240.63
2023-02-20T13:44:28.847Z,102240.41
2023-02-20T13:47:04.588Z,102235.94
2023-02-20T13:49:49.400Z,102239.00
2023-02-20T13:52:40.883Z,102239.53
2023-02-20T13:55:11.034Z,102241.22
2023-02-20T13:57:49.363Z,102250.25
2023-02-20T14:00:44.021Z,102244.50
2023-02-20T14:03:12.885Z,102241.19
2023-02-20T14:05:40.322Z,102241.34
2023-02-20T14:08:16.353Z,102234.63
2023-02-20T14:10:47.686Z,102236.56
2023-02-20T14:13:39.100Z,102237.03
2023-02-20T14:16:27.605Z,102241.22
2023-02-20T14:19:14.785Z,102240.84
2023-02-20T14:21:42.109Z,102236.03
2023-02-20T14:24:29.569Z,102241.94
2023-02-20T14:26:57.226Z,102241.16
2023-02-20T14:29:31.894Z,102246.53
2023-02-20T14:32:02.477Z,102242.16
2023-02-20T14:34:50.840Z,102232.44
2023-02-20T14:37:26.761Z,102241.69
2023-02-20T14:40:39.496Z,102234.00
2023-02-20T14:43:22.152Z,102235.09
2023-02-20T14:46:08.918Z,102236.47
2023-02-20T14:48:42.041Z,102241.28
2023-02-20T14:51:24.620Z,102239.66
2023-02-20T14:54:13.190Z,102242.53
2023-02-20T14:56:41.898Z,102233.81
2023-02-20T14:59:29.119Z,102232.69
2023-02-20T15:02:00.392Z,102223.91
2023-02-20T15:04:28.387Z,102237.06
2023-02-20T15:07:04.271Z,102225.50
2023-02-20T15:09:43.692Z,102229.28
2023-02-20T15:12:29.494Z,102225.72
2023-02-20T15:15:08.035Z,102225.16
2023-02-20T15:17:38.546Z,102226.06
2023-02-20T15:20:20.033Z,102217.31
2023-02-20T15:22:47.489Z,102217.38
2023-02-20T15:25:32.162Z,102224.78
2023-02-20T15:28:10.984Z,102225.28
2023-02-20T15:31:03.041Z,102214.06
2023-02-20T15:33:33.006Z,102215.09
2023-02-20T15:36:00.591Z,102213.84
2023-02-20T15:38:31.534Z,102206.69
2023-02-20T15:41:00.749Z,102205.06
2023-02-20T15:43:48.044Z,102207.28
2023-02-20T15:46:17.646Z,102208.41
2023-02-20T15:48:45.364Z,102206.81
2023-02-20T15:51:18.072Z,102211.16
2023-02-20T15:53:46.164Z,102214.22
2023-02-20T15:56:14.672Z,102200.06
2023-02-20T15:58:43.605Z,102203.38
2023-02-20T16:01:12.237Z,102211.34
2023-02-20T16:03:50.934Z,102209.19
2023-02-20T16:06:20.057Z,102206.97
2023-02-20T16:08:47.567Z,102214.34
2023-02-20T16:11:15.102Z,102207.81
2023-02-20T16:13:46.404Z,102211.94
2023-02-20T16:16:25.300Z,102212.00
2023-02-20T16:18:55.203Z,102204.94
2023-02-20T16:21:24.100Z,102209.63
2023-02-20T16:23:51.482Z,102211.59
2023-02-20T16:26:26.363Z,102210.56
2023-02-20T16:28:58.165Z,102208.66
2023-02-20T16:31:54.038Z,102205.41
2023-02-20T16:34:23.143Z,102213.13
2023-02-20T16:36:51.438Z,102213.94
2023-02-20T16:39:26.261Z,102213.69
2023-02-20T16:41:55.475Z,102215.88
2023-02-20T16:44:42.574Z,102215.63
2023-02-20T16:47:15.123Z,102213.78
2023-02-20T16:49:42.320Z,102212.22
2023-02-20T16:52:25.329Z,102216.34
2023-02-20T16:54:55.000Z,102223.22
2023-02-20T16:57:23.975Z,102213.41
2023-02-20T16:59:57.034Z,102222.19
2023-02-20T17:02:29.945Z,102219.44
2023-02-20T17:04:58.992Z,102222.47
2023-02-20T17:07:26.727Z,102220.56
2023-02-20T17:09:54.023Z,102215.41
2023-02-20T17:12:23.108Z,102222.78
2023-02-20T17:14:50.623Z,102220.31
2023-02-20T17:17:17.706Z,102223.31
2023-02-20T17:19:44.995Z,102219.50
2023-02-20T17:22:14.251Z,102219.00
2023-02-20T17:24:43.718Z,102226.41
2023-02-20T17:27:12.840Z,102210.81
2023-02-20T17:29:43.137Z,102217.38
2023-02-20T17:32:10.595Z,102231.06
2023-02-20T17:34:37.716Z,102226.13
2023-02-20T17:37:06.630Z,102228.03
2023-02-20T17:39:34.178Z,102227.50
2023-02-20T17:42:01.662Z,102235.41
2023-02-20T17:44:31.165Z,102229.41
2023-02-20T17:47:00.797Z,102232.13
2023-02-20T17:49:28.565Z,102230.22
2023-02-20T17:52:01.460Z,102235.13
2023-02-20T17:54:32.310Z,102228.84
2023-02-20T17:56:59.891Z,102229.69
2023-02-20T17:59:27.982Z,102230.25
2023-02-20T18:01:55.288Z,102229.97
2023-02-20T18:04:23.350Z,102233.81
2023-02-20T18:06:50.576Z,102230.81
2023-02-20T18:09:18.644Z,102229.44
2023-02-20T18:11:46.679Z,102233.00
2023-02-20T18:14:14.987Z,102237.88
2023-02-20T18:16:42.534Z,102231.91
2023-02-20T18:19:13.863Z,102238.44
2023-02-20T18:21:42.733Z,102237.63
2023-02-20T18:24:11.335Z,102231.91
2023-02-20T18:26:38.844Z,102232.19
2023-02-20T18:29:05.966Z,102235.19
2023-02-20T18:31:33.932Z,102239.81
2023-02-20T18:34:02.087Z,102241.44
2023-02-20T18:36:30.640Z,102242.56
2023-02-20T18:38:58.240Z,102245.28
2023-02-20T18:41:26.007Z,102240.34
2023-02-20T18:43:53.194Z,102237.38
2023-02-20T18:46:39.826Z,102245.84
2023-02-20T18:49:07.921Z,102237.66
2023-02-20T18:51:40.753Z,102244.19
2023-02-20T18:54:11.160Z,102243.69
2023-02-20T18:56:39.207Z,102242.84
2023-02-20T18:59:06.408Z,102256.22
2023-02-20T19:01:34.269Z,102246.41
2023-02-20T19:04:04.194Z,102251.06
2023-02-20T19:06:34.363Z,102254.31
2023-02-20T19:09:01.954Z,102248.59
2023-02-20T19:11:30.113Z,102248.84
2023-02-20T19:14:01.919Z,102252.44
2023-02-20T19:16:29.783Z,102238.22
2023-02-20T19:18:56.974Z,102247.22
2023-02-20T19:21:24.235Z,102249.69
2023-02-20T19:23:51.519Z,102249.44
2023-02-20T19:26:18.990Z,102257.88
2023-02-20T19:28:47.249Z,102257.06
2023-02-20T19:31:15.933Z,102254.31
2023-02-20T19:33:43.396Z,102254.03
2023-02-20T19:36:10.811Z,102254.59
2023-02-20T19:38:39.528Z,102261.16
2023-02-20T19:41:07.383Z,102261.69
2023-02-20T19:43:35.211Z,102257.31
2023-02-20T19:46:02.721Z,102256.75
2023-02-20T19:48:30.500Z,102254.06
2023-02-20T19:50:58.575Z,102255.69
2023-02-20T19:53:26.302Z,102268.78
2023-02-20T19:55:55.162Z,102269.31
2023-02-20T19:58:22.935Z,102261.97
2023-02-20T20:00:51.653Z,102255.97
2023-02-20T20:03:19.842Z,102260.06
2023-02-20T20:05:48.219Z,102263.31
2023-02-20T20:08:16.161Z,102260.84
2023-02-20T20:10:43.782Z,102255.13
2023-02-20T20:13:11.767Z,102258.13
2023-02-20T20:15:39.644Z,102256.78
2023-02-20T20:18:09.156Z,102257.03
2023-02-20T20:20:37.512Z,102258.94
2023-02-20T20:23:05.914Z,102266.03
2023-02-20T20:25:33.746Z,102259.19
2023-02-20T20:28:03.060Z,102257.25
2023-02-20T20:30:32.362Z,102259.72
2023-02-20T20:33:01.421Z,102261.91
2023-02-20T20:35:30.462Z,102260.53
2023-02-20T20:37:59.334Z,102262.16
2023-02-20T20:40:28.646Z,102264.31
2023-02-20T20:42:58.495Z,102255.34
2023-02-20T20:45:26.245Z,102262.94
2023-02-20T20:47:54.607Z,102261.31
2023-02-20T20:50:28.322Z,102267.31
2023-02-20T20:53:03.094Z,102255.31
2023-02-20T20:55:31.757Z,102262.63
2023-02-20T20:57:59.428Z,102262.34
2023-02-20T21:00:31.287Z,102257.72
2023-02-20T21:02:59.516Z,102249.00
2023-02-20T21:05:30.877Z,102250.88
2023-02-20T21:07:59.333Z,102254.47
2023-02-20T21:10:27.597Z,102255.53
2023-02-20T21:12:55.223Z,102254.47
2023-02-20T21:15:23.789Z,102246.28
2023-02-20T21:17:51.768Z,102251.72
2023-02-20T21:20:23.843Z,102258.25
2023-02-20T21:22:52.104Z,102252.81
2023-02-20T21:25:25.544Z,102258.53
2023-02-20T21:27:55.383Z,102265.88
2023-02-20T21:30:24.849Z,102257.16
2023-02-20T21:32:52.285Z,102258.25
2023-02-20T21:35:22.074Z,102254.97
2023-02-20T21:37:49.580Z,102251.91
2023-02-20T21:40:18.888Z,102259.84
2023-02-20T21:43:04.819Z,102255.75
2023-02-20T21:45:31.927Z,102256.81
2023-02-20T21:47:59.316Z,102250.53
2023-02-20T21:50:27.470Z,102254.59
2023-02-20T21:52:55.961Z,102252.16
2023-02-20T21:55:23.612Z,102249.44
2023-02-20T21:57:51.009Z,102244.25
2023-02-20T22:00:18.298Z,102250.25
2023-02-20T22:02:45.363Z,102255.13
2023-02-20T22:05:12.701Z,102247.78
2023-02-20T22:07:58.119Z,102250.22
2023-02-20T22:10:43.763Z,102247.78
2023-02-20T22:13:29.480Z,102249.94
2023-02-20T22:16:15.591Z,102246.91
2023-02-20T22:19:01.212Z,102242.81
2023-02-20T22:21:47.224Z,102247.69
2023-02-20T22:24:38.488Z,102241.44
2023-02-20T22:27:27.519Z,102239.00
2023-02-20T22:30:15.102Z,102237.88
2023-02-20T22:33:00.956Z,102235.44
2023-02-20T22:35:46.957Z,102233.81
2023-02-20T22:38:32.643Z,102231.34
2023-02-20T22:41:18.389Z,102226.19
2023-02-20T22:44:04.020Z,102234.34
2023-02-20T22:46:49.580Z,102235.16
2023-02-20T22:49:35.386Z,102230.81
2023-02-20T22:52:21.021Z,102224.81
2023-02-20T22:55:08.382Z,102226.44
2023-02-20T22:57:54.125Z,102220.19
2023-02-20T23:00:39.851Z,102219.06
2023-02-20T23:03:25.416Z,102223.72
2023-02-20T23:06:17.950Z,102215.53
2023-02-20T23:09:08.933Z,102210.09
2023-02-20T23:11:55.812Z,102214.72
2023-02-20T23:14:43.581Z,102210.63
2023-02-20T23:17:36.329Z,102205.69
2023-02-20T23:20:37.695Z,102206.22
2023-02-20T23:23:24.664Z,102213.28
2023-02-20T23:26:10.370Z,102200.22
2023-02-20T23:28:56.078Z,102205.91
2023-02-20T23:31:57.768Z,102198.81
2023-02-20T23:34:44.220Z,102211.09
2023-02-20T23:37:30.102Z,102203.19
2023-02-20T23:40:21.245Z,102194.47
2023-02-20T23:43:11.493Z,102199.41
2023-02-20T23:45:57.169Z,102199.63
2023-02-20T23:48:42.677Z,102207.00
2023-02-20T23:51:32.376Z,102209.19
2023-02-20T23:54:18.474Z,102217.03
2023-02-20T23:57:04.264Z,102208.84
2023-02-20T23:59:49.975Z,102212.09
